createdAt,value
2018-03-22T00:00:00.720Z,-1.6
2018-03-22T00:00:50.487Z,-1.6
2018-03-22T00:01:40.555Z,-1.6
2018-03-22T00:02:30.919Z,-1.6
2018-03-22T00:03:20.823Z,-1.6
2018-03-22T00:04:10.460Z,-1.6
2018-03-22T00:05:00.814Z,-1.6
2018-03-22T00:05:50.856Z,-1.7
2018-03-22T00:06:41.015Z,-1.7
2018-03-22T00:07:30.676Z,-1.7
2018-03-22T00:08:21.027Z,-1.7
2018-03-22T00:09:11.081Z,-1.7
2018-03-22T00:10:00.654Z,-1.7
2018-03-22T00:10:51.197Z,-1.7
2018-03-22T00:11:41.540Z,-1.7
2018-03-22T00:12:31.125Z,-1.7
2018-03-22T00:13:21.355Z,-1.8
2018-03-22T00:14:11.039Z,-1.7
2018-03-22T00:15:01.201Z,-1.7
2018-03-22T00:15:50.959Z,-1.8
2018-03-22T00:16:41.402Z,-1.8
2018-03-22T00:17:31.374Z,-1.8
2018-03-22T00:18:21.739Z,-1.8
2018-03-22T00:19:11.548Z,-1.8
2018-03-22T00:20:01.965Z,-1.8
2018-03-22T00:20:51.922Z,-1.8
2018-03-22T00:21:41.923Z,-1.8
2018-03-22T00:22:32.008Z,-1.8
2018-03-22T00:23:22.166Z,-1.8
2018-03-22T00:24:12.145Z,-1.8
2018-03-22T00:25:02.177Z,-1.8
2018-03-22T00:25:51.967Z,-1.8
2018-03-22T00:26:42.328Z,-1.8
2018-03-22T00:27:32.630Z,-1.8
2018-03-22T00:28:22.415Z,-1.8
2018-03-22T00:29:12.789Z,-1.8
2018-03-22T00:30:02.336Z,-1.8
2018-03-22T00:30:52.318Z,-1.8
2018-03-22T00:31:42.457Z,-1.8
2018-03-22T00:32:32.974Z,-1.8
2018-03-22T00:33:22.770Z,-1.8
2018-03-22T00:34:12.837Z,-1.8
2018-03-22T00:35:02.103Z,-1.8
2018-03-22T00:35:52.938Z,-1.8
2018-03-22T00:36:43.006Z,-1.8
2018-03-22T00:37:32.775Z,-1.8
2018-03-22T00:38:23.425Z,-1.8
2018-03-22T00:39:13.635Z,-1.8
2018-03-22T00:40:03.244Z,-1.8
2018-03-22T00:40:53.006Z,-1.9
2018-03-22T00:41:43.166Z,-1.8
2018-03-22T00:42:33.717Z,-1.9
2018-03-22T00:43:23.181Z,-1.8
2018-03-22T00:44:12.834Z,-1.9
2018-03-22T00:45:03.890Z,-1.9
2018-03-22T00:45:53.240Z,-1.9
2018-03-22T00:46:43.209Z,-1.9
2018-03-22T00:47:33.477Z,-1.9
2018-03-22T00:48:23.298Z,-1.9
2018-03-22T00:49:13.866Z,-1.9
2018-03-22T00:50:04.024Z,-1.9
2018-03-22T00:50:53.987Z,-1.9
2018-03-22T00:51:44.138Z,-1.9
2018-03-22T00:52:33.811Z,-1.9
2018-03-22T00:53:24.476Z,-1.9
2018-03-22T00:54:14.123Z,-1.9
2018-03-22T00:55:03.796Z,-1.9
2018-03-22T00:55:54.048Z,-1.9
2018-03-22T00:56:44.200Z,-1.9
2018-03-22T00:57:34.553Z,-1.9
2018-03-22T00:58:23.930Z,-1.9
2018-03-22T00:59:13.996Z,-1.9
2018-03-22T01:00:04.605Z,-1.9
2018-03-22T01:00:54.694Z,-1.9
2018-03-22T01:01:44.256Z,-1.9
2018-03-22T01:02:34.808Z,-1.9
2018-03-22T01:03:24.868Z,-1.9
2018-03-22T01:04:14.941Z,-1.9
2018-03-22T01:05:04.703Z,-1.9
2018-03-22T01:05:54.742Z,-1.9
2018-03-22T01:06:45.078Z,-1.9
2018-03-22T01:07:35.448Z,-1.9
2018-03-22T01:08:25.011Z,-1.9
2018-03-22T01:09:15.275Z,-1.9
2018-03-22T01:10:04.898Z,-1.9
2018-03-22T01:10:55.375Z,-1.9
2018-03-22T01:11:45.265Z,-1.9
2018-03-22T01:12:35.415Z,-1.9
2018-03-22T01:13:25.573Z,-1.9
2018-03-22T01:14:15.435Z,-1.9
2018-03-22T01:15:05.377Z,-1.9
2018-03-22T01:15:55.735Z,-1.9
2018-03-22T01:16:45.510Z,-1.9
2018-03-22T01:17:35.868Z,-1.9
2018-03-22T01:18:25.430Z,-1.9
2018-03-22T01:19:15.486Z,-1.9
2018-03-22T01:20:05.748Z,-1.9
2018-03-22T01:20:55.899Z,-1.9
2018-03-22T01:21:46.154Z,-1.9
2018-03-22T01:22:35.709Z,-1.9
2018-03-22T01:23:25.862Z,-1.9
2018-03-22T01:24:16.034Z,-1.9
2018-03-22T01:25:05.894Z,-1.9
2018-03-22T01:25:55.946Z,-1.9
2018-03-22T01:26:46.801Z,-1.9
2018-03-22T01:27:36.060Z,-1.9
2018-03-22T01:28:26.585Z,-2
2018-03-22T01:29:16.085Z,-1.9
2018-03-22T01:30:06.243Z,-1.9
2018-03-22T01:30:56.297Z,-2
2018-03-22T01:31:46.444Z,-1.9
2018-03-22T01:32:36.626Z,-2
2018-03-22T01:33:26.687Z,-2
2018-03-22T01:34:17.009Z,-2
2018-03-22T01:35:07.397Z,-1.9
2018-03-22T01:35:56.854Z,-2
2018-03-22T01:36:47.206Z,-2
2018-03-22T01:37:37.356Z,-1.9
2018-03-22T01:38:26.733Z,-1.9
2018-03-22T01:39:17.370Z,-2
2018-03-22T01:40:07.149Z,-2
2018-03-22T01:40:57.286Z,-1.9
2018-03-22T01:41:47.254Z,-2
2018-03-22T01:42:37.331Z,-2
2018-03-22T01:43:27.946Z,-2
2018-03-22T01:44:17.220Z,-2
2018-03-22T01:45:07.269Z,-2
2018-03-22T01:45:57.556Z,-2
2018-03-22T01:46:47.883Z,-2
2018-03-22T01:47:37.975Z,-2
2018-03-22T01:48:28.316Z,-2
2018-03-22T01:49:18.053Z,-2
2018-03-22T01:50:07.829Z,-2
2018-03-22T01:50:57.880Z,-2
2018-03-22T01:51:48.525Z,-2
2018-03-22T01:52:37.885Z,-2
2018-03-22T01:53:28.367Z,-2
2018-03-22T01:54:18.430Z,-2
2018-03-22T01:55:08.471Z,-2
2018-03-22T01:55:58.337Z,-2
2018-03-22T01:56:48.300Z,-2
2018-03-22T01:57:38.348Z,-2
2018-03-22T01:58:29.253Z,-2
2018-03-22T01:59:17.981Z,-2
2018-03-22T02:00:08.854Z,-2.1
2018-03-22T02:00:58.876Z,-2
2018-03-22T02:01:49.451Z,-2
2018-03-22T02:02:39.288Z,-2
2018-03-22T02:03:29.072Z,-2
2018-03-22T02:04:19.199Z,-2.1
2018-03-22T02:05:08.977Z,-2.1
2018-03-22T02:05:58.838Z,-2.1
2018-03-22T02:06:49.564Z,-2.1
2018-03-22T02:07:38.769Z,-2
2018-03-22T02:08:29.202Z,-2.1
2018-03-22T02:09:19.161Z,-2.1
2018-03-22T02:10:09.245Z,-2.1
2018-03-22T02:10:59.579Z,-2.1
2018-03-22T02:11:49.642Z,-2.1
2018-03-22T02:12:39.674Z,-2.1
2018-03-22T02:13:29.475Z,-2.1
2018-03-22T02:14:19.316Z,-2.1
2018-03-22T02:15:09.582Z,-2.1
2018-03-22T02:15:59.927Z,-2.1
2018-03-22T02:16:49.968Z,-2.1
2018-03-22T02:17:39.772Z,-2.1
2018-03-22T02:18:30.104Z,-2.1
2018-03-22T02:19:20.172Z,-2.1
2018-03-22T02:20:09.937Z,-2.1
2018-03-22T02:21:00.300Z,-2.1
2018-03-22T02:21:49.652Z,-2.1
2018-03-22T02:22:40.204Z,-2.1
2018-03-22T02:23:30.254Z,-2.1
2018-03-22T02:24:20.796Z,-2.1
2018-03-22T02:25:10.581Z,-2.1
2018-03-22T02:26:00.639Z,-2.1
2018-03-22T02:26:50.684Z,-2.1
2018-03-22T02:27:40.741Z,-2.1
2018-03-22T02:28:30.799Z,-2.1
2018-03-22T02:29:20.591Z,-2.1
2018-03-22T02:30:10.927Z,-2.1
2018-03-22T02:31:00.772Z,-2.1
2018-03-22T02:31:51.044Z,-2.1
2018-03-22T02:32:40.605Z,-2.1
2018-03-22T02:33:30.872Z,-2.1
2018-03-22T02:34:20.906Z,-2.1
2018-03-22T02:35:10.674Z,-2.1
2018-03-22T02:36:00.554Z,-2.1
2018-03-22T02:36:51.672Z,-2.1
2018-03-22T02:37:41.253Z,-2.1
2018-03-22T02:38:31.208Z,-2.1
2018-03-22T02:39:21.267Z,-2.1
2018-03-22T02:40:11.937Z,-2.1
2018-03-22T02:41:01.668Z,-2.1
2018-03-22T02:41:51.550Z,-2.1
2018-03-22T02:42:41.316Z,-2.1
2018-03-22T02:43:31.567Z,-2.1
2018-03-22T02:44:22.221Z,-2.1
2018-03-22T02:45:11.690Z,-2.1
2018-03-22T02:46:02.025Z,-2.1
2018-03-22T02:46:52.100Z,-2.1
2018-03-22T02:47:42.168Z,-2.1
2018-03-22T02:48:31.806Z,-2.1
2018-03-22T02:49:22.281Z,-2.1
2018-03-22T02:50:12.303Z,-2.1
2018-03-22T02:51:02.423Z,-2.2
2018-03-22T02:51:52.427Z,-2.1
2018-03-22T02:52:42.295Z,-2.2
2018-03-22T02:53:32.550Z,-2.2
2018-03-22T02:54:22.325Z,-2.1
2018-03-22T02:55:12.677Z,-2.2
2018-03-22T02:56:02.450Z,-2.2
2018-03-22T02:56:52.508Z,-2.2
2018-03-22T02:57:42.647Z,-2.2
2018-03-22T02:58:32.512Z,-2.2
2018-03-22T02:59:22.395Z,-2.2
2018-03-22T03:00:13.121Z,-2.2
2018-03-22T03:01:02.790Z,-2.2
2018-03-22T03:01:53.125Z,-2.2
2018-03-22T03:02:42.609Z,-2.2
2018-03-22T03:03:33.250Z,-2.2
2018-03-22T03:04:22.829Z,-2.2
2018-03-22T03:05:12.880Z,-2.2
2018-03-22T03:06:03.284Z,-2.2
2018-03-22T03:06:53.287Z,-2.3
2018-03-22T03:07:43.548Z,-2.3
2018-03-22T03:08:33.611Z,-2.3
2018-03-22T03:09:23.166Z,-2.3
2018-03-22T03:10:13.226Z,-2.2
2018-03-22T03:11:03.291Z,-2.3
2018-03-22T03:11:53.239Z,-2.3
2018-03-22T03:12:43.489Z,-2.3
2018-03-22T03:13:33.934Z,-2.3
2018-03-22T03:14:24.320Z,-2.3
2018-03-22T03:15:13.788Z,-2.3
2018-03-22T03:16:04.400Z,-2.3
2018-03-22T03:16:54.185Z,-2.3
2018-03-22T03:17:44.031Z,-2.3
2018-03-22T03:18:34.091Z,-2.3
2018-03-22T03:19:24.375Z,-2.3
2018-03-22T03:20:14.408Z,-2.3
2018-03-22T03:21:04.254Z,-2.3
2018-03-22T03:21:54.507Z,-2.3
2018-03-22T03:22:44.010Z,-2.3
2018-03-22T03:23:34.910Z,-2.3
2018-03-22T03:24:24.413Z,-2.3
2018-03-22T03:25:14.562Z,-2.3
2018-03-22T03:26:04.517Z,-2.3
2018-03-22T03:26:54.382Z,-2.3
2018-03-22T03:27:44.649Z,-2.3
2018-03-22T03:28:35.005Z,-2.3
2018-03-22T03:29:25.329Z,-2.3
2018-03-22T03:30:14.823Z,-2.3
2018-03-22T03:31:04.880Z,-2.3
2018-03-22T03:31:54.953Z,-2.3
2018-03-22T03:32:44.994Z,-2.3
2018-03-22T03:33:34.772Z,-2.3
2018-03-22T03:34:25.695Z,-2.3
2018-03-22T03:35:14.879Z,-2.3
2018-03-22T03:36:05.032Z,-2.3
2018-03-22T03:36:55.596Z,-2.3
2018-03-22T03:37:45.152Z,-2.3
2018-03-22T03:38:35.112Z,-2.3
2018-03-22T03:39:25.458Z,-2.3
2018-03-22T03:40:15.524Z,-2.3
2018-03-22T03:41:05.675Z,-2.3
2018-03-22T03:41:55.534Z,-2.3
2018-03-22T03:42:45.990Z,-2.3
2018-03-22T03:43:36.381Z,-2.3
2018-03-22T03:44:25.827Z,-2.3
2018-03-22T03:45:16.174Z,-2.3
2018-03-22T03:46:05.717Z,-2.4
2018-03-22T03:46:56.276Z,-2.3
2018-03-22T03:47:45.759Z,-2.4
2018-03-22T03:48:36.279Z,-2.3
2018-03-22T03:49:25.959Z,-2.3
2018-03-22T03:50:16.591Z,-2.3
2018-03-22T03:51:06.869Z,-2.3
2018-03-22T03:51:56.432Z,-2.4
2018-03-22T03:52:46.999Z,-2.4
2018-03-22T03:53:36.729Z,-2.3
2018-03-22T03:54:26.782Z,-2.4
2018-03-22T03:55:16.948Z,-2.3
2018-03-22T03:56:06.934Z,-2.4
2018-03-22T03:56:56.671Z,-2.4
2018-03-22T03:57:47.328Z,-2.4
2018-03-22T03:58:37.081Z,-2.4
2018-03-22T03:59:27.161Z,-2.4
2018-03-22T04:00:17.000Z,-2.3
2018-03-22T04:01:07.275Z,-2.4
2018-03-22T04:01:57.038Z,-2.4
2018-03-22T04:02:47.385Z,-2.4
2018-03-22T04:03:37.225Z,-2.4
2018-03-22T04:04:27.510Z,-2.4
2018-03-22T04:05:17.838Z,-2.4
2018-03-22T04:06:07.321Z,-2.4
2018-03-22T04:06:57.085Z,-2.4
2018-03-22T04:07:47.721Z,-2.4
2018-03-22T04:08:37.782Z,-2.4
2018-03-22T04:09:27.843Z,-2.4
2018-03-22T04:10:17.888Z,-2.4
2018-03-22T04:11:08.022Z,-2.4
2018-03-22T04:11:58.308Z,-2.4
2018-03-22T04:12:48.347Z,-2.4
2018-03-22T04:13:38.427Z,-2.4
2018-03-22T04:14:28.187Z,-2.4
2018-03-22T04:15:17.955Z,-2.4
2018-03-22T04:16:08.312Z,-2.4
2018-03-22T04:16:58.721Z,-2.4
2018-03-22T04:17:48.439Z,-2.4
2018-03-22T04:18:38.186Z,-2.4
2018-03-22T04:19:28.245Z,-2.4
2018-03-22T04:20:18.579Z,-2.4
2018-03-22T04:21:08.176Z,-2.4
2018-03-22T04:21:58.505Z,-2.4
2018-03-22T04:22:48.272Z,-2.4
2018-03-22T04:23:38.816Z,-2.4
2018-03-22T04:24:28.977Z,-2.4
2018-03-22T04:25:18.555Z,-2.4
2018-03-22T04:26:08.607Z,-2.4
2018-03-22T04:26:59.059Z,-2.4
2018-03-22T04:27:49.472Z,-2.4
2018-03-22T04:28:39.137Z,-2.4
2018-03-22T04:29:29.547Z,-2.4
2018-03-22T04:30:19.576Z,-2.4
2018-03-22T04:31:09.363Z,-2.4
2018-03-22T04:31:59.406Z,-2.4
2018-03-22T04:32:49.771Z,-2.4
2018-03-22T04:33:39.223Z,-2.4
2018-03-22T04:34:29.853Z,-2.4
2018-03-22T04:35:19.644Z,-2.4
2018-03-22T04:36:09.219Z,-2.4
2018-03-22T04:36:59.471Z,-2.4
2018-03-22T04:37:49.527Z,-2.4
2018-03-22T04:38:39.858Z,-2.4
2018-03-22T04:39:29.643Z,-2.4
2018-03-22T04:40:19.675Z,-2.4
2018-03-22T04:41:10.148Z,-2.4
2018-03-22T04:41:59.911Z,-2.4
2018-03-22T04:42:50.175Z,-2.4
2018-03-22T04:43:39.730Z,-2.4
2018-03-22T04:44:30.305Z,-2.4
2018-03-22T04:45:20.345Z,-2.4
2018-03-22T04:46:09.995Z,-2.4
2018-03-22T04:46:59.981Z,-2.4
2018-03-22T04:47:50.234Z,-2.4
2018-03-22T04:48:40.863Z,-2.4
2018-03-22T04:49:30.628Z,-2.4
2018-03-22T04:50:20.393Z,-2.4
2018-03-22T04:51:10.256Z,-2.4
2018-03-22T04:52:00.327Z,-2.4
2018-03-22T04:52:50.572Z,-2.4
2018-03-22T04:53:40.896Z,-2.4
2018-03-22T04:54:30.970Z,-2.4
2018-03-22T04:55:21.298Z,-2.4
2018-03-22T04:56:11.097Z,-2.4
2018-03-22T04:57:00.840Z,-2.4
2018-03-22T04:57:51.489Z,-2.4
2018-03-22T04:58:41.262Z,-2.4
2018-03-22T04:59:31.347Z,-2.4
2018-03-22T05:00:21.397Z,-2.4
2018-03-22T05:01:11.450Z,-2.4
2018-03-22T05:02:01.213Z,-2.4
2018-03-22T05:02:51.552Z,-2.4
2018-03-22T05:03:41.879Z,-2.4
2018-03-22T05:04:31.669Z,-2.4
2018-03-22T05:05:21.999Z,-2.4
2018-03-22T05:06:11.829Z,-2.4
2018-03-22T05:07:01.900Z,-2.4
2018-03-22T05:07:52.190Z,-2.4
2018-03-22T05:08:42.241Z,-2.4
2018-03-22T05:09:32.289Z,-2.4
2018-03-22T05:10:22.386Z,-2.4
2018-03-22T05:11:12.409Z,-2.4
2018-03-22T05:12:02.484Z,-2.4
2018-03-22T05:12:52.244Z,-2.4
2018-03-22T05:13:42.369Z,-2.4
2018-03-22T05:14:32.664Z,-2.4
2018-03-22T05:15:22.441Z,-2.4
2018-03-22T05:16:12.496Z,-2.4
2018-03-22T05:17:02.550Z,-2.4
2018-03-22T05:17:52.581Z,-2.4
2018-03-22T05:18:43.156Z,-2.4
2018-03-22T05:19:32.700Z,-2.4
2018-03-22T05:20:22.802Z,-2.4
2018-03-22T05:21:13.104Z,-2.3
2018-03-22T05:22:03.164Z,-2.3
2018-03-22T05:22:52.940Z,-2.3
2018-03-22T05:23:43.292Z,-2.4
2018-03-22T05:24:33.397Z,-2.3
2018-03-22T05:25:23.405Z,-2.3
2018-03-22T05:26:13.441Z,-2.3
2018-03-22T05:27:03.529Z,-2.3
2018-03-22T05:27:53.566Z,-2.3
2018-03-22T05:28:43.637Z,-2.3
2018-03-22T05:29:33.684Z,-2.3
2018-03-22T05:30:23.747Z,-2.3
2018-03-22T05:31:13.824Z,-2.3
2018-03-22T05:32:03.585Z,-2.3
2018-03-22T05:32:53.911Z,-2.3
2018-03-22T05:33:43.966Z,-2.3
2018-03-22T05:34:34.078Z,-2.3
2018-03-22T05:35:24.095Z,-2.3
2018-03-22T05:36:14.131Z,-2.3
2018-03-22T05:37:03.941Z,-2.3
2018-03-22T05:37:54.253Z,-2.3
2018-03-22T05:38:44.325Z,-2.3
2018-03-22T05:39:34.373Z,-2.3
2018-03-22T05:40:24.430Z,-2.3
2018-03-22T05:41:14.481Z,-2.3
2018-03-22T05:42:04.579Z,-2.3
2018-03-22T05:42:54.593Z,-2.3
2018-03-22T05:43:44.712Z,-2.3
2018-03-22T05:44:34.750Z,-2.3
2018-03-22T05:45:24.504Z,-2.3
2018-03-22T05:46:14.365Z,-2.3
2018-03-22T05:47:04.323Z,-2.3
2018-03-22T05:47:54.493Z,-2.3
2018-03-22T05:48:45.018Z,-2.3
2018-03-22T05:49:34.818Z,-2.3
2018-03-22T05:50:24.742Z,-2.3
2018-03-22T05:51:14.716Z,-2.3
2018-03-22T05:52:04.863Z,-2.3
2018-03-22T05:52:54.750Z,-2.3
2018-03-22T05:53:44.797Z,-2.3
2018-03-22T05:54:34.851Z,-2.3
2018-03-22T05:55:25.212Z,-2.2
2018-03-22T05:56:14.777Z,-2.2
2018-03-22T05:57:05.130Z,-2.2
2018-03-22T05:57:55.370Z,-2.2
2018-03-22T05:58:45.440Z,-2.2
2018-03-22T05:59:35.593Z,-2.2
2018-03-22T06:00:25.362Z,-2.2
2018-03-22T06:01:15.897Z,-2.1
2018-03-22T06:02:05.483Z,-2.1
2018-03-22T06:02:55.755Z,-2.1
2018-03-22T06:03:45.573Z,-2.1
2018-03-22T06:04:35.554Z,-2.1
2018-03-22T06:05:25.597Z,-2.1
2018-03-22T06:06:15.472Z,-2.1
2018-03-22T06:07:05.525Z,-2.1
2018-03-22T06:07:55.916Z,-2.1
2018-03-22T06:08:46.520Z,-2.1
2018-03-22T06:09:36.195Z,-2.1
2018-03-22T06:10:26.252Z,-2.1
2018-03-22T06:11:16.377Z,-2.1
2018-03-22T06:12:06.067Z,-2
2018-03-22T06:12:56.120Z,-2
2018-03-22T06:13:46.492Z,-2
2018-03-22T06:14:36.802Z,-2
2018-03-22T06:15:26.318Z,-1.9
2018-03-22T06:16:16.931Z,-1.9
2018-03-22T06:17:06.522Z,-1.9
2018-03-22T06:17:56.564Z,-1.9
2018-03-22T06:18:46.534Z,-1.9
2018-03-22T06:19:36.299Z,-1.9
2018-03-22T06:20:26.637Z,-1.9
2018-03-22T06:21:16.901Z,-1.9
2018-03-22T06:22:06.771Z,-1.9
2018-03-22T06:22:57.092Z,-1.9
2018-03-22T06:23:47.179Z,-1.8
2018-03-22T06:24:37.021Z,-1.8
2018-03-22T06:25:26.991Z,-1.8
2018-03-22T06:26:16.769Z,-1.8
2018-03-22T06:27:07.208Z,-1.8
2018-03-22T06:27:57.472Z,-1.8
2018-03-22T06:28:47.858Z,-1.8
2018-03-22T06:29:37.361Z,-1.8
2018-03-22T06:30:26.848Z,-1.8
2018-03-22T06:31:17.295Z,-1.8
2018-03-22T06:32:07.526Z,-1.8
2018-03-22T06:32:57.421Z,-1.8
2018-03-22T06:33:47.384Z,-1.8
2018-03-22T06:34:37.718Z,-1.8
2018-03-22T06:35:27.783Z,-1.7
2018-03-22T06:36:17.556Z,-1.7
2018-03-22T06:37:07.904Z,-1.7
2018-03-22T06:37:58.035Z,-1.7
2018-03-22T06:38:48.503Z,-1.7
2018-03-22T06:39:37.770Z,-1.7
2018-03-22T06:40:27.931Z,-1.6
2018-03-22T06:41:17.987Z,-1.6
2018-03-22T06:42:07.845Z,-1.6
2018-03-22T06:42:58.257Z,-1.6
2018-03-22T06:43:48.065Z,-1.6
2018-03-22T06:44:38.329Z,-1.6
2018-03-22T06:45:28.667Z,-1.6
2018-03-22T06:46:18.748Z,-1.6
2018-03-22T06:47:08.582Z,-1.6
2018-03-22T06:47:58.555Z,-1.6
2018-03-22T06:48:48.615Z,-1.6
2018-03-22T06:49:38.682Z,-1.6
2018-03-22T06:50:29.030Z,-1.6
2018-03-22T06:51:18.577Z,-1.6
2018-03-22T06:52:08.825Z,-1.6
2018-03-22T06:52:59.510Z,-1.6
2018-03-22T06:53:49.058Z,-1.6
2018-03-22T06:54:39.401Z,-1.6
2018-03-22T06:55:28.782Z,-1.6
2018-03-22T06:56:18.990Z,-1.6
2018-03-22T06:57:09.184Z,-1.6
2018-03-22T06:57:59.825Z,-1.6
2018-03-22T06:58:49.686Z,-1.6
2018-03-22T06:59:39.660Z,-1.6
2018-03-22T07:00:29.702Z,-1.6
2018-03-22T07:01:19.656Z,-1.6
2018-03-22T07:02:09.619Z,-1.6
2018-03-22T07:03:00.188Z,-1.6
2018-03-22T07:03:49.955Z,-1.6
2018-03-22T07:04:39.803Z,-1.6
2018-03-22T07:05:29.776Z,-1.6
2018-03-22T07:06:20.107Z,-1.6
2018-03-22T07:07:09.784Z,-1.6
2018-03-22T07:08:00.032Z,-1.6
2018-03-22T07:08:50.004Z,-1.6
2018-03-22T07:09:40.632Z,-1.6
2018-03-22T07:10:30.117Z,-1.6
2018-03-22T07:11:20.162Z,-1.6
2018-03-22T07:12:10.239Z,-1.6
2018-03-22T07:13:00.376Z,-1.6
2018-03-22T07:13:50.638Z,-1.7
2018-03-22T07:14:40.827Z,-1.7
2018-03-22T07:15:30.546Z,-1.7
2018-03-22T07:16:20.693Z,-1.7
2018-03-22T07:17:11.157Z,-1.7
2018-03-22T07:18:01.008Z,-1.7
2018-03-22T07:18:50.985Z,-1.7
2018-03-22T07:19:41.040Z,-1.7
2018-03-22T07:20:30.804Z,-1.7
2018-03-22T07:21:21.047Z,-1.7
2018-03-22T07:22:11.199Z,-1.7
2018-03-22T07:23:00.853Z,-1.7
2018-03-22T07:23:51.327Z,-1.7
2018-03-22T07:24:41.692Z,-1.7
2018-03-22T07:25:31.168Z,-1.7
2018-03-22T07:26:21.495Z,-1.7
2018-03-22T07:27:11.553Z,-1.7
2018-03-22T07:28:01.610Z,-1.7
2018-03-22T07:28:51.273Z,-1.7
2018-03-22T07:29:42.023Z,-1.8
2018-03-22T07:30:31.500Z,-1.7
2018-03-22T07:31:22.130Z,-1.7
2018-03-22T07:32:12.268Z,-1.7
2018-03-22T07:33:01.958Z,-1.8
2018-03-22T07:33:51.767Z,-1.7
2018-03-22T07:34:41.782Z,-1.8
2018-03-22T07:35:32.389Z,-1.7
2018-03-22T07:36:22.459Z,-1.7
2018-03-22T07:37:12.231Z,-1.7
2018-03-22T07:38:02.574Z,-1.7
2018-03-22T07:38:52.664Z,-1.7
2018-03-22T07:39:42.435Z,-1.7
2018-03-22T07:40:32.195Z,-1.7
2018-03-22T07:41:22.533Z,-1.7
2018-03-22T07:42:12.298Z,-1.7
2018-03-22T07:43:02.066Z,-1.7
2018-03-22T07:43:52.016Z,-1.6
2018-03-22T07:44:43.028Z,-1.7
2018-03-22T07:45:32.533Z,-1.7
2018-03-22T07:46:22.876Z,-1.6
2018-03-22T07:47:12.943Z,-1.7
2018-03-22T07:48:02.995Z,-1.6
2018-03-22T07:48:53.061Z,-1.6
2018-03-22T07:49:43.209Z,-1.6
2018-03-22T07:50:32.882Z,-1.6
2018-03-22T07:51:23.233Z,-1.6
2018-03-22T07:52:12.782Z,-1.6
2018-03-22T07:53:03.644Z,-1.6
2018-03-22T07:53:53.097Z,-1.6
2018-03-22T07:54:43.450Z,-1.6
2018-03-22T07:55:33.503Z,-1.6
2018-03-22T07:56:23.554Z,-1.6
2018-03-22T07:57:13.932Z,-1.6
2018-03-22T07:58:03.478Z,-1.5
2018-03-22T07:58:54.116Z,-1.6
2018-03-22T07:59:43.805Z,-1.5
2018-03-22T08:00:33.874Z,-1.5
2018-03-22T08:01:23.635Z,-1.5
2018-03-22T08:02:13.403Z,-1.5
2018-03-22T08:03:04.022Z,-1.4
2018-03-22T08:03:54.094Z,-1.4
2018-03-22T08:04:43.867Z,-1.4
2018-03-22T08:05:34.299Z,-1.4
2018-03-22T08:06:23.975Z,-1.4
2018-03-22T08:07:14.037Z,-1.4
2018-03-22T08:08:04.682Z,-1.4
2018-03-22T08:08:54.040Z,-1.4
2018-03-22T08:09:44.779Z,-1.4
2018-03-22T08:10:34.545Z,-1.3
2018-03-22T08:11:24.312Z,-1.3
2018-03-22T08:12:14.956Z,-1.3
2018-03-22T08:13:04.715Z,-1.3
2018-03-22T08:13:54.788Z,-1.3
2018-03-22T08:14:44.253Z,-1.3
2018-03-22T08:15:34.595Z,-1.3
2018-03-22T08:16:25.239Z,-1.3
2018-03-22T08:17:15.016Z,-1.2
2018-03-22T08:18:05.353Z,-1.2
2018-03-22T08:18:54.936Z,-1.2
2018-03-22T08:19:44.771Z,-1.2
2018-03-22T08:20:35.632Z,-1.2
2018-03-22T08:21:25.084Z,-1.1
2018-03-22T08:22:15.351Z,-1.1
2018-03-22T08:23:04.914Z,-1.1
2018-03-22T08:23:54.973Z,-1.1
2018-03-22T08:24:45.521Z,-1.1
2018-03-22T08:25:35.378Z,-1.1
2018-03-22T08:26:25.629Z,-1
2018-03-22T08:27:15.999Z,-1
2018-03-22T08:28:05.638Z,-1
2018-03-22T08:28:55.800Z,-1
2018-03-22T08:29:45.878Z,-1
2018-03-22T08:33:56.160Z,-0.9
2018-03-22T08:34:46.490Z,-0.9
2018-03-22T08:35:36.000Z,-0.9
2018-03-22T08:36:26.324Z,-0.8
2018-03-22T08:37:16.378Z,-0.8
2018-03-22T08:38:06.234Z,-0.8
2018-03-22T08:38:56.293Z,-0.8
2018-03-22T08:39:46.368Z,-0.8
2018-03-22T08:40:36.607Z,-0.8
2018-03-22T08:41:27.048Z,-0.7
2018-03-22T08:42:16.736Z,-0.7
2018-03-22T08:43:07.067Z,-0.7
2018-03-22T08:43:56.842Z,-0.7
2018-03-22T08:44:46.932Z,-0.6
2018-03-22T08:45:36.281Z,-0.6
2018-03-22T08:46:27.320Z,-0.6
2018-03-22T08:47:16.795Z,-0.6
2018-03-22T08:48:07.126Z,-0.6
2018-03-22T08:48:56.997Z,-0.6
2018-03-22T08:49:47.540Z,-0.6
2018-03-22T08:50:37.337Z,-0.6
2018-03-22T08:51:27.277Z,-0.5
2018-03-22T08:52:17.420Z,-0.5
2018-03-22T08:53:07.281Z,-0.5
2018-03-22T08:53:57.257Z,-0.5
2018-03-22T08:54:48.078Z,-0.5
2018-03-22T08:55:37.926Z,-0.4
2018-03-22T08:56:28.000Z,-0.4
2018-03-22T08:57:17.549Z,-0.4
2018-03-22T08:58:07.679Z,-0.4
2018-03-22T08:58:57.704Z,-0.4
2018-03-22T08:59:47.494Z,-0.4
2018-03-22T09:00:37.992Z,-0.4
2018-03-22T09:01:27.561Z,-0.4
2018-03-22T09:02:17.833Z,-0.4
2018-03-22T09:03:07.591Z,-0.4
2018-03-22T09:03:58.219Z,-0.3
2018-03-22T09:04:48.283Z,-0.3
2018-03-22T09:05:38.219Z,-0.3
2018-03-22T09:06:28.690Z,-0.3
2018-03-22T09:07:17.963Z,-0.3
2018-03-22T09:08:08.573Z,-0.3
2018-03-22T09:08:58.576Z,-0.3
2018-03-22T09:09:48.747Z,-0.3
2018-03-22T09:10:38.671Z,-0.3
2018-03-22T09:11:28.464Z,-0.3
2018-03-22T09:12:18.806Z,-0.3
2018-03-22T09:13:08.745Z,-0.2
2018-03-22T09:13:59.187Z,-0.3
2018-03-22T09:14:48.966Z,-0.2
2018-03-22T09:15:38.815Z,-0.1
2018-03-22T09:16:28.907Z,-0.1
2018-03-22T09:17:19.138Z,-0.1
2018-03-22T09:18:09.502Z,-0.1
2018-03-22T09:18:58.967Z,-0.1
2018-03-22T09:19:48.932Z,-0.1
2018-03-22T09:20:39.273Z,-0.1
2018-03-22T09:21:29.158Z,-0.1
2018-03-22T09:22:19.283Z,0
2018-03-22T09:23:09.361Z,0
2018-03-22T09:23:59.595Z,0
2018-03-22T09:24:49.680Z,0
2018-03-22T09:25:39.422Z,0.1
2018-03-22T09:26:29.577Z,0.1
2018-03-22T09:27:19.360Z,0.1
2018-03-22T09:28:09.689Z,0.1
2018-03-22T09:28:59.940Z,0.1
2018-03-22T09:29:49.721Z,0.1
2018-03-22T09:30:40.375Z,0.1
2018-03-22T09:31:29.620Z,0.1
2018-03-22T09:32:19.880Z,0.1
2018-03-22T09:33:09.957Z,0.2
2018-03-22T09:34:00.277Z,0.2
2018-03-22T09:34:50.568Z,0.2
2018-03-22T09:35:40.512Z,0.2
2018-03-22T09:36:30.360Z,0.2
2018-03-22T09:37:20.517Z,0.3
2018-03-22T09:38:10.676Z,0.3
2018-03-22T09:39:00.907Z,0.3
2018-03-22T09:39:50.699Z,0.3
2018-03-22T09:40:40.456Z,0.3
2018-03-22T09:41:31.109Z,0.3
2018-03-22T09:42:21.154Z,0.3
2018-03-22T09:43:10.342Z,0.4
2018-03-22T09:44:01.279Z,0.4
2018-03-22T09:44:50.840Z,0.4
2018-03-22T09:45:40.797Z,0.4
2018-03-22T09:46:30.946Z,0.4
2018-03-22T09:47:21.204Z,0.4
2018-03-22T09:48:11.029Z,0.4
2018-03-22T09:49:01.309Z,0.5
2018-03-22T09:49:51.476Z,0.5
2018-03-22T09:50:41.442Z,0.5
2018-03-22T09:51:31.079Z,0.5
2018-03-22T09:52:21.256Z,0.5
2018-03-22T09:53:11.601Z,0.5
2018-03-22T09:54:01.084Z,0.5
2018-03-22T09:54:51.426Z,0.5
2018-03-22T09:55:42.077Z,0.6
2018-03-22T09:56:31.159Z,0.6
2018-03-22T09:57:22.193Z,0.6
2018-03-22T09:58:11.653Z,0.6
2018-03-22T09:59:02.348Z,0.6
2018-03-22T09:59:52.353Z,0.6
2018-03-22T10:00:42.386Z,0.6
2018-03-22T10:01:32.468Z,0.6
2018-03-22T10:02:22.517Z,0.6
2018-03-22T10:03:12.275Z,0.6
2018-03-22T10:04:02.340Z,0.6
2018-03-22T10:04:52.682Z,0.6
2018-03-22T10:05:42.457Z,0.6
2018-03-22T10:06:32.777Z,0.6
2018-03-22T10:07:22.870Z,0.6
2018-03-22T10:08:12.904Z,0.6
2018-03-22T10:09:02.707Z,0.6
2018-03-22T10:09:52.735Z,0.6
2018-03-22T10:10:42.510Z,0.6
2018-03-22T10:11:33.155Z,0.6
2018-03-22T10:12:23.195Z,0.6
2018-03-22T10:13:13.260Z,0.6
2018-03-22T10:14:02.729Z,0.6
2018-03-22T10:14:53.395Z,0.6
2018-03-22T10:15:43.438Z,0.6
2018-03-22T10:16:33.467Z,0.6
2018-03-22T10:17:22.972Z,0.6
2018-03-22T10:18:13.653Z,0.5
2018-03-22T10:19:03.382Z,0.5
2018-03-22T10:19:53.699Z,0.5
2018-03-22T10:20:43.785Z,0.5
2018-03-22T10:21:33.520Z,0.5
2018-03-22T10:22:23.885Z,0.5
2018-03-22T10:23:13.931Z,0.5
2018-03-22T10:24:03.992Z,0.5
2018-03-22T10:24:54.079Z,0.5
2018-03-22T10:25:43.832Z,0.5
2018-03-22T10:26:34.180Z,0.5
2018-03-22T10:27:23.962Z,0.4
2018-03-22T10:28:14.292Z,0.4
2018-03-22T10:29:03.786Z,0.4
2018-03-22T10:29:54.388Z,0.4
2018-03-22T10:30:44.493Z,0.4
2018-03-22T10:31:34.512Z,0.4
2018-03-22T10:32:24.579Z,0.4
2018-03-22T10:33:14.643Z,0.4
2018-03-22T10:34:04.434Z,0.4
2018-03-22T10:34:54.732Z,0.4
2018-03-22T10:35:44.268Z,0.4
2018-03-22T10:36:33.998Z,0.4
2018-03-22T10:37:24.149Z,0.4
2018-03-22T10:38:15.184Z,0.4
2018-03-22T10:39:04.755Z,0.4
2018-03-22T10:39:54.316Z,0.4
2018-03-22T10:40:44.561Z,0.4
2018-03-22T10:41:34.919Z,0.4
2018-03-22T10:42:24.773Z,0.4
2018-03-22T10:43:15.020Z,0.4
2018-03-22T10:44:04.843Z,0.4
2018-03-22T10:44:55.158Z,0.4
2018-03-22T10:45:44.925Z,0.4
2018-03-22T10:46:34.975Z,0.4
2018-03-22T10:47:25.320Z,0.4
2018-03-22T10:48:15.375Z,0.4
2018-03-22T10:49:05.151Z,0.4
2018-03-22T10:49:55.303Z,0.4
2018-03-22T10:50:45.256Z,0.4
2018-03-22T10:51:35.120Z,0.4
2018-03-22T10:52:25.742Z,0.4
2018-03-22T10:53:15.715Z,0.4
2018-03-22T10:54:05.775Z,0.4
2018-03-22T10:54:55.620Z,0.4
2018-03-22T10:55:45.901Z,0.4
2018-03-22T10:56:36.051Z,0.4
2018-03-22T10:57:25.713Z,0.4
2018-03-22T10:58:15.506Z,0.4
2018-03-22T10:59:06.107Z,0.4
2018-03-22T10:59:55.568Z,0.4
2018-03-22T11:00:46.023Z,0.4
2018-03-22T11:01:35.700Z,0.4
2018-03-22T11:02:26.232Z,0.4
2018-03-22T11:03:16.197Z,0.4
2018-03-22T11:04:06.478Z,0.5
2018-03-22T11:04:56.222Z,0.5
2018-03-22T11:05:46.300Z,0.5
2018-03-22T11:06:36.923Z,0.5
2018-03-22T11:07:26.695Z,0.5
2018-03-22T11:08:17.042Z,0.5
2018-03-22T11:09:06.796Z,0.5
2018-03-22T11:09:56.573Z,0.5
2018-03-22T11:10:46.614Z,0.5
2018-03-22T11:11:37.263Z,0.5
2018-03-22T11:12:27.050Z,0.5
2018-03-22T11:13:16.682Z,0.5
2018-03-22T11:14:07.441Z,0.6
2018-03-22T11:14:56.930Z,0.6
2018-03-22T11:15:47.271Z,0.6